sensor_id;sensor_type;location;lat;lon;timestamp;temperature;humidity
13898;DHT22;7019;50.766;4.474;2022-11-15T00:02:17;10.00;99.90
13898;DHT22;7019;50.766;4.474;2022-11-15T00:04:46;10.00;99.90
13898;DHT22;7019;50.766;4.474;2022-11-15T00:07:13;10.10;99.90
13898;DHT22;7019;50.766;4.474;2022-11-15T00:09:40;10.00;99.90
13898;DHT22;7019;50.766;4.474;2022-11-15T00:12:07;10.00;99.90
13898;DHT22;7019;50.766;4.474;2022-11-15T00:14:34;10.00;99.90
13898;DHT22;7019;50.766;4.474;2022-11-15T00:17:01;10.00;99.90
13898;DHT22;7019;50.766;4.474;2022-11-15T00:19:28;10.10;99.90
13898;DHT22;7019;50.766;4.474;2022-11-15T00:21:56;10.10;99.90
13898;DHT22;7019;50.766;4.474;2022-11-15T00:24:23;10.10;99.90
13898;DHT22;7019;50.766;4.474;2022-11-15T00:26:50;10.20;99.90
13898;DHT22;7019;50.766;4.474;2022-11-15T00:29:17;10.10;99.90
13898;DHT22;7019;50.766;4.474;2022-11-15T00:31:45;10.10;99.90
13898;DHT22;7019;50.766;4.474;2022-11-15T00:34:12;10.10;99.90
13898;DHT22;7019;50.766;4.474;2022-11-15T00:36:39;10.10;99.90
13898;DHT22;7019;50.766;4.474;2022-11-15T00:39:07;10.10;99.90
13898;DHT22;7019;50.766;4.474;2022-11-15T00:41:34;10.20;99.90
13898;DHT22;7019;50.766;4.474;2022-11-15T00:44:02;10.20;99.90
13898;DHT22;7019;50.766;4.474;2022-11-15T00:46:29;10.20;99.90
13898;DHT22;7019;50.766;4.474;2022-11-15T00:48:56;10.20;99.90
13898;DHT22;7019;50.766;4.474;2022-11-15T00:51:23;10.30;99.90
13898;DHT22;7019;50.766;4.474;2022-11-15T00:53:50;10.30;99.90
13898;DHT22;7019;50.766;4.474;2022-11-15T00:56:18;10.30;99.90
13898;DHT22;7019;50.766;4.474;2022-11-15T00:58:45;10.30;99.90
13898;DHT22;7019;50.766;4.474;2022-11-15T01:01:14;10.30;99.90
13898;DHT22;7019;50.766;4.474;2022-11-15T01:03:41;10.30;99.90
13898;DHT22;7019;50.766;4.474;2022-11-15T01:06:09;10.40;99.90
13898;DHT22;7019;50.766;4.474;2022-11-15T01:08:38;10.40;99.90
13898;DHT22;7019;50.766;4.474;2022-11-15T01:11:07;10.40;99.90
13898;DHT22;7019;50.766;4.474;2022-11-15T01:13:36;10.40;99.90
13898;DHT22;7019;50.766;4.474;2022-11-15T01:16:09;10.40;99.90
13898;DHT22;7019;50.766;4.474;2022-11-15T01:18:36;10.50;99.90
13898;DHT22;7019;50.766;4.474;2022-11-15T01:21:07;10.50;99.90
13898;DHT22;7019;50.766;4.474;2022-11-15T01:23:35;10.60;99.90
13898;DHT22;7019;50.766;4.474;2022-11-15T01:26:04;10.50;99.90
13898;DHT22;7019;50.766;4.474;2022-11-15T01:28:32;10.50;99.90
13898;DHT22;7019;50.766;4.474;2022-11-15T01:31:02;10.60;99.90
13898;DHT22;7019;50.766;4.474;2022-11-15T01:33:30;10.60;99.90
13898;DHT22;7019;50.766;4.474;2022-11-15T01:35:57;10.60;99.90
13898;DHT22;7019;50.766;4.474;2022-11-15T01:38:24;10.50;99.90
13898;DHT22;7019;50.766;4.474;2022-11-15T01:40:51;10.50;99.90
13898;DHT22;7019;50.766;4.474;2022-11-15T01:43:22;10.50;99.90
13898;DHT22;7019;50.766;4.474;2022-11-15T01:45:52;10.50;99.90
13898;DHT22;7019;50.766;4.474;2022-11-15T01:48:27;10.60;99.90
13898;DHT22;7019;50.766;4.474;2022-11-15T01:50:55;10.50;99.90
13898;DHT22;7019;50.766;4.474;2022-11-15T01:53:23;10.50;99.90
13898;DHT22;7019;50.766;4.474;2022-11-15T01:55:51;10.50;99.90
13898;DHT22;7019;50.766;4.474;2022-11-15T01:58:19;10.50;99.90
13898;DHT22;7019;50.766;4.474;2022-11-15T02:00:46;10.60;99.90
13898;DHT22;7019;50.766;4.474;2022-11-15T02:03:15;10.60;99.90
13898;DHT22;7019;50.766;4.474;2022-11-15T02:05:44;10.60;99.90
13898;DHT22;7019;50.766;4.474;2022-11-15T02:08:11;10.50;99.90
13898;DHT22;7019;50.766;4.474;2022-11-15T02:10:45;10.60;99.90
13898;DHT22;7019;50.766;4.474;2022-11-15T02:13:14;10.60;99.90
13898;DHT22;7019;50.766;4.474;2022-11-15T02:15:49;10.60;99.90
13898;DHT22;7019;50.766;4.474;2022-11-15T02:18:21;10.60;99.90
13898;DHT22;7019;50.766;4.474;2022-11-15T02:21:10;10.60;99.90
13898;DHT22;7019;50.766;4.474;2022-11-15T02:23:58;10.60;99.90
13898;DHT22;7019;50.766;4.474;2022-11-15T02:26:56;10.60;99.90
13898;DHT22;7019;50.766;4.474;2022-11-15T02:29:38;10.60;99.90
13898;DHT22;7019;50.766;4.474;2022-11-15T02:32:14;10.50;99.90
13898;DHT22;7019;50.766;4.474;2022-11-15T02:34:50;10.50;99.90
13898;DHT22;7019;50.766;4.474;2022-11-15T02:37:25;10.50;99.90
13898;DHT22;7019;50.766;4.474;2022-11-15T02:39:59;10.50;99.90
13898;DHT22;7019;50.766;4.474;2022-11-15T02:42:32;10.50;99.90
13898;DHT22;7019;50.766;4.474;2022-11-15T02:45:21;10.50;99.90
13898;DHT22;7019;50.766;4.474;2022-11-15T02:47:54;10.40;99.90
13898;DHT22;7019;50.766;4.474;2022-11-15T02:50:25;10.50;99.90
13898;DHT22;7019;50.766;4.474;2022-11-15T02:52:54;10.40;99.90
13898;DHT22;7019;50.766;4.474;2022-11-15T02:55:27;10.50;99.90
13898;DHT22;7019;50.766;4.474;2022-11-15T02:58:17;10.50;99.90
13898;DHT22;7019;50.766;4.474;2022-11-15T03:00:48;10.50;99.90
13898;DHT22;7019;50.766;4.474;2022-11-15T03:03:29;10.50;99.90
13898;DHT22;7019;50.766;4.474;2022-11-15T03:06:07;10.50;99.90
13898;DHT22;7019;50.766;4.474;2022-11-15T03:08:44;10.40;99.90
13898;DHT22;7019;50.766;4.474;2022-11-15T03:11:16;10.40;99.90
13898;DHT22;7019;50.766;4.474;2022-11-15T03:13:48;10.40;99.90
13898;DHT22;7019;50.766;4.474;2022-11-15T03:16:24;10.30;99.90
13898;DHT22;7019;50.766;4.474;2022-11-15T03:18:56;10.30;99.90
13898;DHT22;7019;50.766;4.474;2022-11-15T03:21:25;10.30;99.90
13898;DHT22;7019;50.766;4.474;2022-11-15T03:23:54;10.40;99.90
13898;DHT22;7019;50.766;4.474;2022-11-15T03:26:23;10.40;99.90
13898;DHT22;7019;50.766;4.474;2022-11-15T03:28:54;10.30;99.90
13898;DHT22;7019;50.766;4.474;2022-11-15T03:31:23;10.30;99.90
13898;DHT22;7019;50.766;4.474;2022-11-15T03:34:19;10.20;99.90
13898;DHT22;7019;50.766;4.474;2022-11-15T03:36:47;10.20;99.90
13898;DHT22;7019;50.766;4.474;2022-11-15T03:39:16;10.20;99.90
13898;DHT22;7019;50.766;4.474;2022-11-15T03:41:48;10.10;99.90
13898;DHT22;7019;50.766;4.474;2022-11-15T03:44:25;10.10;99.90
13898;DHT22;7019;50.766;4.474;2022-11-15T03:46:58;10.10;99.90
13898;DHT22;7019;50.766;4.474;2022-11-15T03:49:31;10.10;99.90
13898;DHT22;7019;50.766;4.474;2022-11-15T03:52:00;10.10;99.90
13898;DHT22;7019;50.766;4.474;2022-11-15T03:54:29;10.10;99.90
13898;DHT22;7019;50.766;4.474;2022-11-15T03:56:56;10.10;99.90
13898;DHT22;7019;50.766;4.474;2022-11-15T03:59:23;10.10;99.90
13898;DHT22;7019;50.766;4.474;2022-11-15T04:01:50;10.10;99.90
13898;DHT22;7019;50.766;4.474;2022-11-15T04:04:17;10.00;99.90
13898;DHT22;7019;50.766;4.474;2022-11-15T04:06:45;10.10;99.90
13898;DHT22;7019;50.766;4.474;2022-11-15T04:09:13;10.10;99.90
13898;DHT22;7019;50.766;4.474;2022-11-15T04:11:40;10.10;99.90
13898;DHT22;7019;50.766;4.474;2022-11-15T04:14:07;10.10;99.90
13898;DHT22;7019;50.766;4.474;2022-11-15T04:16:34;10.00;99.90
13898;DHT22;7019;50.766;4.474;2022-11-15T04:19:01;10.00;99.90
13898;DHT22;7019;50.766;4.474;2022-11-15T04:21:46;10.00;99.90
13898;DHT22;7019;50.766;4.474;2022-11-15T04:24:31;10.00;99.90
13898;DHT22;7019;50.766;4.474;2022-11-15T04:26:58;10.00;99.90
13898;DHT22;7019;50.766;4.474;2022-11-15T04:29:25;10.00;99.90
13898;DHT22;7019;50.766;4.474;2022-11-15T04:32:02;10.00;99.90
13898;DHT22;7019;50.766;4.474;2022-11-15T04:34:29;9.90;99.90
13898;DHT22;7019;50.766;4.474;2022-11-15T04:36:58;9.90;99.90
13898;DHT22;7019;50.766;4.474;2022-11-15T04:39:42;9.80;99.90
13898;DHT22;7019;50.766;4.474;2022-11-15T04:42:10;9.80;99.90
13898;DHT22;7019;50.766;4.474;2022-11-15T04:44:37;9.80;99.90
13898;DHT22;7019;50.766;4.474;2022-11-15T04:47:04;9.70;99.90
13898;DHT22;7019;50.766;4.474;2022-11-15T04:49:31;9.60;99.90
13898;DHT22;7019;50.766;4.474;2022-11-15T04:52:00;9.40;99.90
13898;DHT22;7019;50.766;4.474;2022-11-15T04:54:27;9.40;99.90
13898;DHT22;7019;50.766;4.474;2022-11-15T04:56:54;9.40;99.90
13898;DHT22;7019;50.766;4.474;2022-11-15T04:59:21;9.30;99.90
13898;DHT22;7019;50.766;4.474;2022-11-15T05:01:48;9.30;99.90
13898;DHT22;7019;50.766;4.474;2022-11-15T05:04:15;9.30;99.90
13898;DHT22;7019;50.766;4.474;2022-11-15T05:06:48;9.30;99.90
13898;DHT22;7019;50.766;4.474;2022-11-15T05:09:17;9.30;99.90
13898;DHT22;7019;50.766;4.474;2022-11-15T05:11:44;9.20;99.90
13898;DHT22;7019;50.766;4.474;2022-11-15T05:14:12;9.10;99.90
13898;DHT22;7019;50.766;4.474;2022-11-15T05:16:40;9.10;99.90
13898;DHT22;7019;50.766;4.474;2022-11-15T05:19:07;9.10;99.90
13898;DHT22;7019;50.766;4.474;2022-11-15T05:21:34;9.00;99.90
13898;DHT22;7019;50.766;4.474;2022-11-15T05:24:02;8.90;99.90
13898;DHT22;7019;50.766;4.474;2022-11-15T05:26:31;8.80;99.90
13898;DHT22;7019;50.766;4.474;2022-11-15T05:28:59;8.80;99.90
13898;DHT22;7019;50.766;4.474;2022-11-15T05:31:27;8.80;99.90
13898;DHT22;7019;50.766;4.474;2022-11-15T05:33:55;8.80;99.90
13898;DHT22;7019;50.766;4.474;2022-11-15T05:36:29;8.70;99.90
13898;DHT22;7019;50.766;4.474;2022-11-15T05:38:58;8.60;99.90
13898;DHT22;7019;50.766;4.474;2022-11-15T05:41:29;8.60;99.90
13898;DHT22;7019;50.766;4.474;2022-11-15T05:43:58;8.50;99.90
13898;DHT22;7019;50.766;4.474;2022-11-15T05:46:27;8.40;99.90
13898;DHT22;7019;50.766;4.474;2022-11-15T05:48:55;8.30;99.90
13898;DHT22;7019;50.766;4.474;2022-11-15T05:51:23;8.30;99.90
13898;DHT22;7019;50.766;4.474;2022-11-15T05:53:51;8.20;99.90
13898;DHT22;7019;50.766;4.474;2022-11-15T05:56:20;8.10;99.90
13898;DHT22;7019;50.766;4.474;2022-11-15T05:58:47;8.00;99.90
13898;DHT22;7019;50.766;4.474;2022-11-15T06:01:16;8.00;99.90
13898;DHT22;7019;50.766;4.474;2022-11-15T06:03:43;8.00;99.90
13898;DHT22;7019;50.766;4.474;2022-11-15T06:06:10;8.10;99.90
13898;DHT22;7019;50.766;4.474;2022-11-15T06:08:37;8.20;99.90
13898;DHT22;7019;50.766;4.474;2022-11-15T06:11:05;8.30;99.90
13898;DHT22;7019;50.766;4.474;2022-11-15T06:13:32;8.30;99.90
13898;DHT22;7019;50.766;4.474;2022-11-15T06:16:00;8.30;99.90
13898;DHT22;7019;50.766;4.474;2022-11-15T06:18:31;8.20;99.90
13898;DHT22;7019;50.766;4.474;2022-11-15T06:20:59;8.30;99.90
13898;DHT22;7019;50.766;4.474;2022-11-15T06:23:26;8.20;99.90
13898;DHT22;7019;50.766;4.474;2022-11-15T06:25:57;8.20;99.90
13898;DHT22;7019;50.766;4.474;2022-11-15T06:28:24;8.20;99.90
13898;DHT22;7019;50.766;4.474;2022-11-15T06:30:51;8.10;99.90
13898;DHT22;7019;50.766;4.474;2022-11-15T06:33:18;8.10;99.90
13898;DHT22;7019;50.766;4.474;2022-11-15T06:35:47;8.20;99.90
13898;DHT22;7019;50.766;4.474;2022-11-15T06:38:14;8.00;99.90
13898;DHT22;7019;50.766;4.474;2022-11-15T06:40:41;7.90;99.90
13898;DHT22;7019;50.766;4.474;2022-11-15T06:43:08;7.80;99.90
13898;DHT22;7019;50.766;4.474;2022-11-15T06:45:35;7.70;99.90
13898;DHT22;7019;50.766;4.474;2022-11-15T06:48:02;7.80;99.90
13898;DHT22;7019;50.766;4.474;2022-11-15T06:50:29;7.80;99.90
13898;DHT22;7019;50.766;4.474;2022-11-15T06:53:02;7.80;99.90
13898;DHT22;7019;50.766;4.474;2022-11-15T06:55:30;7.60;99.90
13898;DHT22;7019;50.766;4.474;2022-11-15T06:57:57;7.40;99.90
13898;DHT22;7019;50.766;4.474;2022-11-15T07:00:24;7.40;99.90
13898;DHT22;7019;50.766;4.474;2022-11-15T07:02:51;7.40;99.90
13898;DHT22;7019;50.766;4.474;2022-11-15T07:05:18;7.50;99.90
13898;DHT22;7019;50.766;4.474;2022-11-15T07:07:51;7.60;99.90
13898;DHT22;7019;50.766;4.474;2022-11-15T07:10:20;7.60;99.90
13898;DHT22;7019;50.766;4.474;2022-11-15T07:12:47;7.50;99.90
13898;DHT22;7019;50.766;4.474;2022-11-15T07:15:15;7.50;99.90
13898;DHT22;7019;50.766;4.474;2022-11-15T07:17:42;7.70;99.90
13898;DHT22;7019;50.766;4.474;2022-11-15T07:20:10;7.70;99.90
13898;DHT22;7019;50.766;4.474;2022-11-15T07:22:39;7.70;99.90
13898;DHT22;7019;50.766;4.474;2022-11-15T07:25:07;7.70;99.90
13898;DHT22;7019;50.766;4.474;2022-11-15T07:27:35;7.80;99.90
13898;DHT22;7019;50.766;4.474;2022-11-15T07:30:03;7.80;99.90
13898;DHT22;7019;50.766;4.474;2022-11-15T07:32:31;7.80;99.90
13898;DHT22;7019;50.766;4.474;2022-11-15T07:34:58;7.80;99.90
13898;DHT22;7019;50.766;4.474;2022-11-15T07:37:25;7.80;99.90
13898;DHT22;7019;50.766;4.474;2022-11-15T07:39:52;7.80;99.90
13898;DHT22;7019;50.766;4.474;2022-11-15T07:42:19;7.70;99.90
13898;DHT22;7019;50.766;4.474;2022-11-15T07:45:06;7.70;99.90
13898;DHT22;7019;50.766;4.474;2022-11-15T07:47:33;7.80;99.90
13898;DHT22;7019;50.766;4.474;2022-11-15T07:50:00;7.80;99.90
13898;DHT22;7019;50.766;4.474;2022-11-15T07:52:27;7.80;99.90
13898;DHT22;7019;50.766;4.474;2022-11-15T07:54:54;7.90;99.90
13898;DHT22;7019;50.766;4.474;2022-11-15T07:57:21;8.10;99.90
13898;DHT22;7019;50.766;4.474;2022-11-15T07:59:48;8.10;99.90
13898;DHT22;7019;50.766;4.474;2022-11-15T08:02:16;8.20;99.90
13898;DHT22;7019;50.766;4.474;2022-11-15T08:04:43;8.40;99.90
13898;DHT22;7019;50.766;4.474;2022-11-15T08:07:11;8.40;99.90
13898;DHT22;7019;50.766;4.474;2022-11-15T08:09:38;8.40;99.90
13898;DHT22;7019;50.766;4.474;2022-11-15T08:12:05;8.50;99.90
13898;DHT22;7019;50.766;4.474;2022-11-15T08:14:32;8.50;99.90
13898;DHT22;7019;50.766;4.474;2022-11-15T08:16:59;8.50;99.90
13898;DHT22;7019;50.766;4.474;2022-11-15T08:19:28;8.60;99.90
13898;DHT22;7019;50.766;4.474;2022-11-15T08:21:55;8.70;99.90
13898;DHT22;7019;50.766;4.474;2022-11-15T08:24:22;8.80;99.90
13898;DHT22;7019;50.766;4.474;2022-11-15T08:26:49;8.90;99.90
13898;DHT22;7019;50.766;4.474;2022-11-15T08:29:16;9.00;99.90
13898;DHT22;7019;50.766;4.474;2022-11-15T08:31:43;9.00;99.90
13898;DHT22;7019;50.766;4.474;2022-11-15T08:34:11;9.00;99.90
13898;DHT22;7019;50.766;4.474;2022-11-15T08:36:39;9.10;99.90
13898;DHT22;7019;50.766;4.474;2022-11-15T08:39:08;9.10;99.90
13898;DHT22;7019;50.766;4.474;2022-11-15T08:41:37;9.10;99.90
13898;DHT22;7019;50.766;4.474;2022-11-15T08:44:04;9.10;99.90
13898;DHT22;7019;50.766;4.474;2022-11-15T08:46:31;9.10;99.90
13898;DHT22;7019;50.766;4.474;2022-11-15T08:48:59;9.20;99.90
13898;DHT22;7019;50.766;4.474;2022-11-15T08:51:26;9.20;99.90
13898;DHT22;7019;50.766;4.474;2022-11-15T08:53:54;9.20;99.90
13898;DHT22;7019;50.766;4.474;2022-11-15T08:56:21;9.20;99.90
13898;DHT22;7019;50.766;4.474;2022-11-15T08:58:48;9.20;99.90
13898;DHT22;7019;50.766;4.474;2022-11-15T09:01:16;9.20;99.90
13898;DHT22;7019;50.766;4.474;2022-11-15T09:03:44;9.20;99.90
13898;DHT22;7019;50.766;4.474;2022-11-15T09:06:11;9.20;99.90
13898;DHT22;7019;50.766;4.474;2022-11-15T09:08:39;9.30;99.90
13898;DHT22;7019;50.766;4.474;2022-11-15T09:11:09;9.30;99.90
13898;DHT22;7019;50.766;4.474;2022-11-15T09:13:37;9.30;99.90
13898;DHT22;7019;50.766;4.474;2022-11-15T09:16:04;9.40;99.90
13898;DHT22;7019;50.766;4.474;2022-11-15T09:18:32;9.50;99.90
13898;DHT22;7019;50.766;4.474;2022-11-15T09:20:59;9.60;99.90
13898;DHT22;7019;50.766;4.474;2022-11-15T09:23:28;9.60;99.90
13898;DHT22;7019;50.766;4.474;2022-11-15T09:25:59;9.60;99.90
13898;DHT22;7019;50.766;4.474;2022-11-15T09:28:28;9.70;99.90
13898;DHT22;7019;50.766;4.474;2022-11-15T09:30:57;9.70;99.90
13898;DHT22;7019;50.766;4.474;2022-11-15T09:33:26;9.80;99.90
13898;DHT22;7019;50.766;4.474;2022-11-15T09:35:54;9.80;99.90
13898;DHT22;7019;50.766;4.474;2022-11-15T09:38:21;9.70;99.90
13898;DHT22;7019;50.766;4.474;2022-11-15T09:40:52;9.80;99.90
13898;DHT22;7019;50.766;4.474;2022-11-15T09:43:34;9.90;99.90
13898;DHT22;7019;50.766;4.474;2022-11-15T09:46:13;10.00;99.90
13898;DHT22;7019;50.766;4.474;2022-11-15T09:48:49;10.00;99.90
13898;DHT22;7019;50.766;4.474;2022-11-15T09:51:27;10.10;99.90
13898;DHT22;7019;50.766;4.474;2022-11-15T09:54:05;10.10;99.90
13898;DHT22;7019;50.766;4.474;2022-11-15T09:56:39;10.00;99.90
13898;DHT22;7019;50.766;4.474;2022-11-15T09:59:27;10.10;99.90
13898;DHT22;7019;50.766;4.474;2022-11-15T10:02:00;10.10;99.90
13898;DHT22;7019;50.766;4.474;2022-11-15T10:04:31;10.10;99.90
13898;DHT22;7019;50.766;4.474;2022-11-15T10:07:08;10.10;99.90
13898;DHT22;7019;50.766;4.474;2022-11-15T10:09:43;10.20;99.90
13898;DHT22;7019;50.766;4.474;2022-11-15T10:12:13;10.30;99.90
13898;DHT22;7019;50.766;4.474;2022-11-15T10:14:42;10.40;99.90
13898;DHT22;7019;50.766;4.474;2022-11-15T10:17:30;10.40;99.90
13898;DHT22;7019;50.766;4.474;2022-11-15T10:20:09;10.40;99.90
13898;DHT22;7019;50.766;4.474;2022-11-15T10:22:40;10.50;99.90
13898;DHT22;7019;50.766;4.474;2022-11-15T10:25:16;10.60;99.90
13898;DHT22;7019;50.766;4.474;2022-11-15T10:27:47;10.60;99.90
13898;DHT22;7019;50.766;4.474;2022-11-15T10:30:23;10.70;99.90
13898;DHT22;7019;50.766;4.474;2022-11-15T10:32:50;10.70;99.90
13898;DHT22;7019;50.766;4.474;2022-11-15T10:35:23;10.80;99.90
13898;DHT22;7019;50.766;4.474;2022-11-15T10:37:51;10.80;99.90
13898;DHT22;7019;50.766;4.474;2022-11-15T10:40:20;10.80;99.90
13898;DHT22;7019;50.766;4.474;2022-11-15T10:42:47;10.80;99.90
13898;DHT22;7019;50.766;4.474;2022-11-15T10:45:27;10.80;99.90
13898;DHT22;7019;50.766;4.474;2022-11-15T10:48:23;10.90;99.90
13898;DHT22;7019;50.766;4.474;2022-11-15T10:50:53;11.00;99.90
13898;DHT22;7019;50.766;4.474;2022-11-15T10:53:31;11.10;99.90
13898;DHT22;7019;50.766;4.474;2022-11-15T10:56:02;11.20;99.90
13898;DHT22;7019;50.766;4.474;2022-11-15T10:58:34;11.30;99.90
13898;DHT22;7019;50.766;4.474;2022-11-15T11:01:17;11.40;99.90
13898;DHT22;7019;50.766;4.474;2022-11-15T11:03:46;11.50;99.90
13898;DHT22;7019;50.766;4.474;2022-11-15T11:06:24;11.60;99.90
13898;DHT22;7019;50.766;4.474;2022-11-15T11:08:57;11.70;99.90
13898;DHT22;7019;50.766;4.474;2022-11-15T11:11:24;11.70;99.90
13898;DHT22;7019;50.766;4.474;2022-11-15T11:13:52;11.80;99.90
13898;DHT22;7019;50.766;4.474;2022-11-15T11:16:32;11.80;99.90
13898;DHT22;7019;50.766;4.474;2022-11-15T11:19:08;11.80;99.90
13898;DHT22;7019;50.766;4.474;2022-11-15T11:21:43;11.90;99.90
13898;DHT22;7019;50.766;4.474;2022-11-15T11:24:20;12.00;99.90
13898;DHT22;7019;50.766;4.474;2022-11-15T11:27:07;12.00;99.90
13898;DHT22;7019;50.766;4.474;2022-11-15T11:29:48;12.00;99.90
13898;DHT22;7019;50.766;4.474;2022-11-15T11:32:30;12.10;99.90
13898;DHT22;7019;50.766;4.474;2022-11-15T11:35:05;12.20;99.90
13898;DHT22;7019;50.766;4.474;2022-11-15T11:37:40;12.20;99.90
13898;DHT22;7019;50.766;4.474;2022-11-15T11:40:24;12.20;99.90
13898;DHT22;7019;50.766;4.474;2022-11-15T11:42:58;12.20;99.90
13898;DHT22;7019;50.766;4.474;2022-11-15T11:45:43;12.30;99.90
13898;DHT22;7019;50.766;4.474;2022-11-15T11:48:23;12.20;99.90
13898;DHT22;7019;50.766;4.474;2022-11-15T11:51:03;12.20;99.90
13898;DHT22;7019;50.766;4.474;2022-11-15T11:53:38;12.40;99.90
13898;DHT22;7019;50.766;4.474;2022-11-15T11:56:18;12.10;99.90
13898;DHT22;7019;50.766;4.474;2022-11-15T11:58:48;12.10;99.90
13898;DHT22;7019;50.766;4.474;2022-11-15T12:01:22;12.10;99.90
13898;DHT22;7019;50.766;4.474;2022-11-15T12:03:53;12.10;99.90
13898;DHT22;7019;50.766;4.474;2022-11-15T12:06:30;12.20;99.90
13898;DHT22;7019;50.766;4.474;2022-11-15T12:09:04;12.20;99.90
13898;DHT22;7019;50.766;4.474;2022-11-15T12:11:41;12.20;99.90
13898;DHT22;7019;50.766;4.474;2022-11-15T12:14:21;12.30;99.90
13898;DHT22;7019;50.766;4.474;2022-11-15T12:16:50;12.30;99.90
13898;DHT22;7019;50.766;4.474;2022-11-15T12:19:19;12.20;99.90
13898;DHT22;7019;50.766;4.474;2022-11-15T12:21:50;12.20;99.90
13898;DHT22;7019;50.766;4.474;2022-11-15T12:24:22;12.20;99.90
13898;DHT22;7019;50.766;4.474;2022-11-15T12:26:56;12.10;99.90
13898;DHT22;7019;50.766;4.474;2022-11-15T12:29:30;12.20;99.90
13898;DHT22;7019;50.766;4.474;2022-11-15T12:31:58;12.20;99.90
13898;DHT22;7019;50.766;4.474;2022-11-15T12:34:47;12.20;99.90
13898;DHT22;7019;50.766;4.474;2022-11-15T12:40:31;12.20;99.90
13898;DHT22;7019;50.766;4.474;2022-11-15T12:45:46;12.30;99.90
13898;DHT22;7019;50.766;4.474;2022-11-15T12:48:45;12.30;99.90
13898;DHT22;7019;50.766;4.474;2022-11-15T12:51:14;12.40;99.90
13898;DHT22;7019;50.766;4.474;2022-11-15T12:53:42;12.40;99.90
13898;DHT22;7019;50.766;4.474;2022-11-15T12:56:21;12.50;99.90
13898;DHT22;7019;50.766;4.474;2022-11-15T12:58:50;12.50;99.90
13898;DHT22;7019;50.766;4.474;2022-11-15T13:01:54;12.60;99.90
13898;DHT22;7019;50.766;4.474;2022-11-15T13:04:25;12.70;99.90
13898;DHT22;7019;50.766;4.474;2022-11-15T13:06:56;12.90;99.90
13898;DHT22;7019;50.766;4.474;2022-11-15T13:12:56;12.90;99.90
13898;DHT22;7019;50.766;4.474;2022-11-15T13:15:51;12.90;99.90
13898;DHT22;7019;50.766;4.474;2022-11-15T13:18:37;12.90;99.90
13898;DHT22;7019;50.766;4.474;2022-11-15T13:21:18;12.90;99.90
13898;DHT22;7019;50.766;4.474;2022-11-15T13:24:09;12.80;99.90
13898;DHT22;7019;50.766;4.474;2022-11-15T13:26:39;12.80;99.90
13898;DHT22;7019;50.766;4.474;2022-11-15T13:29:15;12.70;99.90
13898;DHT22;7019;50.766;4.474;2022-11-15T13:31:44;12.80;99.90
13898;DHT22;7019;50.766;4.474;2022-11-15T13:34:21;12.70;99.90
13898;DHT22;7019;50.766;4.474;2022-11-15T13:36:49;12.70;99.90
13898;DHT22;7019;50.766;4.474;2022-11-15T13:39:27;12.60;99.90
13898;DHT22;7019;50.766;4.474;2022-11-15T13:41:54;12.60;99.90
13898;DHT22;7019;50.766;4.474;2022-11-15T13:44:23;12.60;99.90
13898;DHT22;7019;50.766;4.474;2022-11-15T13:47:02;12.60;99.90
13898;DHT22;7019;50.766;4.474;2022-11-15T13:49:31;12.60;99.90
13898;DHT22;7019;50.766;4.474;2022-11-15T13:52:00;12.60;99.90
13898;DHT22;7019;50.766;4.474;2022-11-15T13:54:33;12.60;99.90
13898;DHT22;7019;50.766;4.474;2022-11-15T13:57:03;12.60;99.90
13898;DHT22;7019;50.766;4.474;2022-11-15T13:59:34;12.60;99.90
13898;DHT22;7019;50.766;4.474;2022-11-15T14:02:10;12.60;99.90
13898;DHT22;7019;50.766;4.474;2022-11-15T14:04:39;12.60;99.90
13898;DHT22;7019;50.766;4.474;2022-11-15T14:07:17;12.60;99.90
13898;DHT22;7019;50.766;4.474;2022-11-15T14:09:47;12.60;99.90
13898;DHT22;7019;50.766;4.474;2022-11-15T14:12:31;12.50;99.90
13898;DHT22;7019;50.766;4.474;2022-11-15T14:15:00;12.50;99.90
13898;DHT22;7019;50.766;4.474;2022-11-15T14:17:36;12.50;99.90
13898;DHT22;7019;50.766;4.474;2022-11-15T14:20:20;12.40;99.90
13898;DHT22;7019;50.766;4.474;2022-11-15T14:22:54;12.30;99.90
13898;DHT22;7019;50.766;4.474;2022-11-15T14:25:23;12.30;99.90
13898;DHT22;7019;50.766;4.474;2022-11-15T14:28:15;12.20;99.90
13898;DHT22;7019;50.766;4.474;2022-11-15T14:30:43;12.40;99.90
13898;DHT22;7019;50.766;4.474;2022-11-15T14:33:21;12.30;99.90
13898;DHT22;7019;50.766;4.474;2022-11-15T14:35:49;12.30;99.90
13898;DHT22;7019;50.766;4.474;2022-11-15T14:38:16;12.20;99.90
13898;DHT22;7019;50.766;4.474;2022-11-15T14:40:45;12.10;99.90
13898;DHT22;7019;50.766;4.474;2022-11-15T14:43:13;12.10;99.90
13898;DHT22;7019;50.766;4.474;2022-11-15T14:45:40;12.10;99.90
13898;DHT22;7019;50.766;4.474;2022-11-15T14:48:07;12.00;99.90
13898;DHT22;7019;50.766;4.474;2022-11-15T14:50:35;12.00;99.90
13898;DHT22;7019;50.766;4.474;2022-11-15T14:53:03;12.00;99.90
13898;DHT22;7019;50.766;4.474;2022-11-15T14:55:31;11.90;99.90
13898;DHT22;7019;50.766;4.474;2022-11-15T14:58:02;11.90;99.90
13898;DHT22;7019;50.766;4.474;2022-11-15T15:00:30;11.90;99.90
13898;DHT22;7019;50.766;4.474;2022-11-15T15:02:57;12.00;99.90
13898;DHT22;7019;50.766;4.474;2022-11-15T15:05:27;12.00;99.90
13898;DHT22;7019;50.766;4.474;2022-11-15T15:07:56;11.90;99.90
13898;DHT22;7019;50.766;4.474;2022-11-15T15:10:31;11.90;99.90
13898;DHT22;7019;50.766;4.474;2022-11-15T15:12:59;11.80;99.90
13898;DHT22;7019;50.766;4.474;2022-11-15T15:15:32;11.80;99.90
13898;DHT22;7019;50.766;4.474;2022-11-15T15:18:01;11.70;99.90
13898;DHT22;7019;50.766;4.474;2022-11-15T15:20:28;11.70;99.90
13898;DHT22;7019;50.766;4.474;2022-11-15T15:22:56;11.70;99.90
13898;DHT22;7019;50.766;4.474;2022-11-15T15:25:26;11.70;99.90
13898;DHT22;7019;50.766;4.474;2022-11-15T15:27:54;11.70;99.90
13898;DHT22;7019;50.766;4.474;2022-11-15T15:30:22;11.70;99.90
13898;DHT22;7019;50.766;4.474;2022-11-15T15:32:51;11.60;99.90
13898;DHT22;7019;50.766;4.474;2022-11-15T15:35:20;11.50;99.90
13898;DHT22;7019;50.766;4.474;2022-11-15T15:37:48;11.50;99.90
13898;DHT22;7019;50.766;4.474;2022-11-15T15:40:17;11.50;99.90
13898;DHT22;7019;50.766;4.474;2022-11-15T15:42:46;11.50;99.90
13898;DHT22;7019;50.766;4.474;2022-11-15T15:45:14;11.50;99.90
13898;DHT22;7019;50.766;4.474;2022-11-15T15:47:42;11.50;99.90
13898;DHT22;7019;50.766;4.474;2022-11-15T15:50:19;11.40;99.90
13898;DHT22;7019;50.766;4.474;2022-11-15T15:52:47;11.30;99.90
13898;DHT22;7019;50.766;4.474;2022-11-15T15:55:14;11.30;99.90
13898;DHT22;7019;50.766;4.474;2022-11-15T15:57:41;11.30;99.90
13898;DHT22;7019;50.766;4.474;2022-11-15T16:00:10;11.30;99.90
13898;DHT22;7019;50.766;4.474;2022-11-15T16:02:37;11.40;99.90
13898;DHT22;7019;50.766;4.474;2022-11-15T16:05:05;11.40;99.90
13898;DHT22;7019;50.766;4.474;2022-11-15T16:07:34;11.30;99.90
13898;DHT22;7019;50.766;4.474;2022-11-15T16:10:02;11.20;99.90
13898;DHT22;7019;50.766;4.474;2022-11-15T16:12:30;11.20;99.90
13898;DHT22;7019;50.766;4.474;2022-11-15T16:14:57;11.20;99.90
13898;DHT22;7019;50.766;4.474;2022-11-15T16:17:26;11.20;99.90
13898;DHT22;7019;50.766;4.474;2022-11-15T16:19:53;11.10;99.90
13898;DHT22;7019;50.766;4.474;2022-11-15T16:22:20;11.10;99.90
13898;DHT22;7019;50.766;4.474;2022-11-15T16:24:49;11.00;99.90
13898;DHT22;7019;50.766;4.474;2022-11-15T16:27:17;11.00;99.90